Time;durP1;ratioP1;P1;durP2;ratioP2;P2;SDS_P1;SDS_P2;PMS_P1;PMS_P2;Temp;Humidity;BMP_temperature;BMP_pressure;BME280_temperature;BME280_humidity;BME280_pressure;Samples;Min_cycle;Max_cycle;Signal;HPM_P1;HPM_P2
2020/12/05 00:01:23;;;;;;;14.23;5.80;;;;;;;;;;10322778;28;20648;-71
2020/12/05 00:06:26;;;;;;;13.50;5.93;;;;;;;;;;10314654;28;20237;-72
2020/12/05 00:11:28;;;;;;;13.97;5.83;;;;;;;;;;10316233;28;20214;-71
2020/12/05 00:16:30;;;;;;;11.70;5.43;;;;;;;;;;10319243;28;20761;-72
2020/12/05 00:21:33;;;;;;;10.67;5.07;;;;;;;;;;10320095;28;20304;-72
2020/12/05 00:26:35;;;;;;;11.77;4.90;;;;;;;;;;10318922;28;20668;-70
2020/12/05 00:31:37;;;;;;;9.93;5.43;;;;;;;;;;10325254;28;20244;-70
2020/12/05 00:36:40;;;;;;;9.63;5.10;;;;;;;;;;10323392;28;20228;-70
2020/12/05 00:41:42;;;;;;;11.30;4.60;;;;;;;;;;10318640;28;20983;-72
2020/12/05 00:46:44;;;;;;;10.20;4.70;;;;;;;;;;10324824;28;20289;-71
2020/12/05 00:51:47;;;;;;;14.73;7.47;;;;;;;;;;10316081;28;20703;-71
2020/12/05 00:56:51;;;;;;;11.07;4.57;;;;;;;;;;10321024;28;20216;-71
2020/12/05 01:01:54;;;;;;;15.50;4.30;;;;;;;;;;10325547;28;20209;-70
2020/12/05 01:06:56;;;;;;;11.17;4.40;;;;;;;;;;10315599;28;20980;-71
2020/12/05 01:11:58;;;;;;;10.20;4.00;;;;;;;;;;10314036;28;20214;-71
2020/12/05 01:17:00;;;;;;;9.10;4.10;;;;;;;;;;10316078;28;20663;-72
2020/12/05 01:22:02;;;;;;;10.07;4.33;;;;;;;;;;10317262;28;20228;-70
2020/12/05 01:27:04;;;;;;;7.10;4.03;;;;;;;;;;10316549;28;20240;-71
2020/12/05 01:32:06;;;;;;;7.47;4.13;;;;;;;;;;10316886;28;20205;-71
2020/12/05 01:37:09;;;;;;;9.90;4.53;;;;;;;;;;10319152;28;20622;-71
2020/12/05 01:42:11;;;;;;;9.67;4.57;;;;;;;;;;10312114;28;20583;-71
2020/12/05 01:47:13;;;;;;;10.50;5.17;;;;;;;;;;10316430;28;20225;-71
2020/12/05 01:52:16;;;;;;;9.20;4.47;;;;;;;;;;10323350;28;20700;-71
2020/12/05 01:57:21;;;;;;;10.50;5.10;;;;;;;;;;10310654;28;20587;-71
2020/12/05 02:02:22;;;;;;;8.40;5.00;;;;;;;;;;10315476;28;20213;-71
2020/12/05 02:07:29;;;;;;;11.20;4.90;;;;;;;;;;10314536;28;20241;-72
2020/12/05 02:12:33;;;;;;;11.40;5.57;;;;;;;;;;10316825;28;20201;-71
2020/12/05 02:17:37;;;;;;;8.20;5.47;;;;;;;;;;10321324;28;20225;-72
2020/12/05 02:22:42;;;;;;;9.30;5.27;;;;;;;;;;10316418;28;20205;-71
2020/12/05 02:27:46;;;;;;;12.47;5.63;;;;;;;;;;10317668;28;20248;-71
2020/12/05 02:32:48;;;;;;;9.30;5.10;;;;;;;;;;10314555;28;20216;-70
2020/12/05 02:37:50;;;;;;;11.00;5.10;;;;;;;;;;10315218;28;20970;-70
2020/12/05 02:42:55;;;;;;;14.13;5.30;;;;;;;;;;10318669;28;20198;-73
2020/12/05 02:47:57;;;;;;;9.70;4.97;;;;;;;;;;10318839;28;20602;-71
2020/12/05 02:52:59;;;;;;;8.83;5.13;;;;;;;;;;10314769;28;20216;-71
2020/12/05 02:58:01;;;;;;;12.53;6.37;;;;;;;;;;10322246;28;20209;-70
2020/12/05 03:03:03;;;;;;;11.73;5.53;;;;;;;;;;10311356;28;20217;-70
2020/12/05 03:08:05;;;;;;;10.90;5.10;;;;;;;;;;10315389;28;20241;-71
2020/12/05 03:13:08;;;;;;;8.87;4.87;;;;;;;;;;10313526;28;20342;-71
2020/12/05 03:18:10;;;;;;;9.93;5.40;;;;;;;;;;10312738;28;20267;-71
2020/12/05 03:23:11;;;;;;;12.00;5.30;;;;;;;;;;10318098;28;20210;-70
2020/12/05 03:28:14;;;;;;;10.67;4.93;;;;;;;;;;10325768;28;20246;-71
2020/12/05 03:33:16;;;;;;;10.40;5.63;;;;;;;;;;10316933;28;20639;-71
2020/12/05 03:38:17;;;;;;;13.00;5.57;;;;;;;;;;10322253;28;20206;-71
2020/12/05 03:43:20;;;;;;;11.10;5.43;;;;;;;;;;10327412;28;20221;-70
2020/12/05 03:48:22;;;;;;;10.87;5.30;;;;;;;;;;10320829;28;20238;-70
2020/12/05 03:53:24;;;;;;;6.77;5.03;;;;;;;;;;10327886;28;20591;-71
2020/12/05 03:58:26;;;;;;;10.67;4.93;;;;;;;;;;10315472;28;20213;-70
2020/12/05 04:03:28;;;;;;;8.30;4.90;;;;;;;;;;10317895;28;20206;-71
2020/12/05 04:08:30;;;;;;;13.50;6.23;;;;;;;;;;10324802;28;20845;-70
2020/12/05 04:13:32;;;;;;;11.40;6.00;;;;;;;;;;10323555;28;20208;-71
2020/12/05 04:18:35;;;;;;;13.37;6.03;;;;;;;;;;10314926;28;20210;-70
2020/12/05 04:23:36;;;;;;;11.97;5.73;;;;;;;;;;10315080;28;20305;-70
2020/12/05 04:28:39;;;;;;;10.20;6.03;;;;;;;;;;10315918;28;20241;-70
2020/12/05 04:33:41;;;;;;;10.67;5.43;;;;;;;;;;10318723;28;20220;-70
2020/12/05 04:38:43;;;;;;;10.10;5.53;;;;;;;;;;10314705;28;20209;-71
2020/12/05 04:43:46;;;;;;;12.10;5.57;;;;;;;;;;10318421;28;20222;-70
2020/12/05 04:48:48;;;;;;;9.83;5.83;;;;;;;;;;10322052;28;20238;-70
2020/12/05 04:53:49;;;;;;;12.97;6.03;;;;;;;;;;10320710;28;20220;-71
2020/12/05 04:58:54;;;;;;;17.73;6.67;;;;;;;;;;10317873;28;20296;-70
2020/12/05 05:03:56;;;;;;;10.50;6.37;;;;;;;;;;10312630;28;20206;-70
2020/12/05 05:08:58;;;;;;;10.20;6.00;;;;;;;;;;10317739;28;20307;-70
2020/12/05 05:14:03;;;;;;;13.53;5.90;;;;;;;;;;10322338;28;20225;-70
2020/12/05 05:19:19;;;;;;;14.87;6.27;;;;;;;;;;10312902;28;20221;-70
2020/12/05 05:24:22;;;;;;;13.50;6.93;;;;;;;;;;10320753;28;20285;-69
2020/12/05 05:29:26;;;;;;;15.53;7.30;;;;;;;;;;10317498;28;20610;-71
2020/12/05 05:34:28;;;;;;;15.77;7.23;;;;;;;;;;10317244;28;20206;-71
2020/12/05 05:39:42;;;;;;;14.27;8.20;;;;;;;;;;10317077;28;20214;-71
2020/12/05 05:44:45;;;;;;;16.37;8.00;;;;;;;;;;10319937;28;20214;-72
2020/12/05 05:49:47;;;;;;;14.20;7.60;;;;;;;;;;10312622;28;20245;-70
2020/12/05 05:54:54;;;;;;;12.93;7.43;;;;;;;;;;10314436;28;20206;-71
2020/12/05 05:59:57;;;;;;;18.17;7.47;;;;;;;;;;10311741;28;20217;-71
2020/12/05 06:04:59;;;;;;;15.13;7.37;;;;;;;;;;10312431;28;20212;-71
2020/12/05 06:10:01;;;;;;;14.00;7.17;;;;;;;;;;10317642;28;20244;-71
2020/12/05 06:15:04;;;;;;;15.27;7.57;;;;;;;;;;10324241;28;20217;-71
2020/12/05 06:20:06;;;;;;;11.40;6.63;;;;;;;;;;10312554;28;20213;-71
2020/12/05 06:25:10;;;;;;;15.00;7.13;;;;;;;;;;10323030;28;20253;-70
2020/12/05 06:30:13;;;;;;;13.07;6.93;;;;;;;;;;10331289;28;20236;-71
2020/12/05 06:35:31;;;;;;;15.27;6.73;;;;;;;;;;10309281;28;20221;-71
2020/12/05 06:40:40;;;;;;;17.13;6.70;;;;;;;;;;10325796;28;20212;-71
2020/12/05 06:45:43;;;;;;;13.73;6.77;;;;;;;;;;10314953;28;20224;-70
2020/12/05 06:50:45;;;;;;;19.50;6.93;;;;;;;;;;10319704;28;20230;-70
2020/12/05 06:55:48;;;;;;;16.07;7.30;;;;;;;;;;10316426;28;20900;-71
2020/12/05 07:00:50;;;;;;;13.43;6.83;;;;;;;;;;10324291;28;20210;-70
2020/12/05 07:05:53;;;;;;;19.03;7.20;;;;;;;;;;10319204;28;20675;-71
2020/12/05 07:10:57;;;;;;;16.33;7.63;;;;;;;;;;10326892;28;20240;-70
2020/12/05 07:16:10;;;;;;;15.10;7.70;;;;;;;;;;10318844;28;20205;-71
2020/12/05 07:21:12;;;;;;;17.60;7.77;;;;;;;;;;10325688;28;20228;-71
2020/12/05 07:26:14;;;;;;;16.53;8.37;;;;;;;;;;10313148;28;20354;-71
2020/12/05 07:31:18;;;;;;;14.67;7.73;;;;;;;;;;10319788;28;20237;-72
2020/12/05 07:36:19;;;;;;;17.47;8.10;;;;;;;;;;10316724;28;20680;-72
2020/12/05 07:41:21;;;;;;;14.00;8.07;;;;;;;;;;10320820;28;20244;-71
2020/12/05 07:46:24;;;;;;;17.70;7.70;;;;;;;;;;10326224;28;20830;-69
2020/12/05 07:51:27;;;;;;;14.73;7.70;;;;;;;;;;10314301;28;20534;-71
2020/12/05 07:56:29;;;;;;;13.70;7.87;;;;;;;;;;10313693;28;20577;-71
2020/12/05 08:01:55;;;;;;;14.03;7.67;;;;;;;;;;10318954;28;20605;-70
2020/12/05 08:07:01;;;;;;;16.30;8.20;;;;;;;;;;10312121;28;20602;-71
2020/12/05 08:12:05;;;;;;;21.03;10.10;;;;;;;;;;10320048;28;21005;-70
2020/12/05 08:17:07;;;;;;;14.17;8.10;;;;;;;;;;10321280;28;20716;-72
2020/12/05 08:22:09;;;;;;;20.70;8.57;;;;;;;;;;10314217;28;20213;-73
2020/12/05 08:27:11;;;;;;;18.87;8.40;;;;;;;;;;10316549;28;20240;-70
2020/12/05 08:32:17;;;;;;;14.53;8.80;;;;;;;;;;10313378;28;20587;-69
2020/12/05 08:37:21;;;;;;;16.63;8.77;;;;;;;;;;10320795;28;20680;-70
2020/12/05 08:42:27;;;;;;;15.73;8.60;;;;;;;;;;10310305;28;20287;-70
2020/12/05 08:47:30;;;;;;;18.57;8.87;;;;;;;;;;10311129;28;22237;-70
2020/12/05 08:52:34;;;;;;;21.13;8.53;;;;;;;;;;10311906;28;20201;-71
2020/12/05 08:57:36;;;;;;;15.33;8.80;;;;;;;;;;10312824;28;20214;-71
2020/12/05 09:02:38;;;;;;;19.57;9.00;;;;;;;;;;10316275;28;20680;-71
2020/12/05 09:07:40;;;;;;;18.17;9.40;;;;;;;;;;10311850;28;20229;-73
2020/12/05 09:12:42;;;;;;;18.47;9.50;;;;;;;;;;10306752;28;20210;-71
2020/12/05 09:17:45;;;;;;;15.53;8.50;;;;;;;;;;10313433;28;21187;-72
2020/12/05 09:22:47;;;;;;;18.95;11.15;;;;;;;;;;10311695;28;20479;-70
2020/12/05 09:27:49;;;;;;;14.87;8.67;;;;;;;;;;10307676;28;20250;-71
2020/12/05 09:32:52;;;;;;;14.03;8.80;;;;;;;;;;10307072;28;21489;-70
2020/12/05 09:37:56;;;;;;;17.80;9.30;;;;;;;;;;10316993;28;20213;-70
2020/12/05 09:42:58;;;;;;;13.73;9.20;;;;;;;;;;10308341;28;20205;-70
2020/12/05 09:48:01;;;;;;;20.47;9.33;;;;;;;;;;10316389;28;20397;-70
2020/12/05 09:53:03;;;;;;;15.33;8.70;;;;;;;;;;10315592;28;20213;-71
2020/12/05 09:58:05;;;;;;;16.53;8.60;;;;;;;;;;10314345;28;20601;-71
2020/12/05 10:03:07;;;;;;;18.70;8.83;;;;;;;;;;10306048;28;20703;-71
2020/12/05 10:08:09;;;;;;;15.53;8.67;;;;;;;;;;10311983;28;20613;-71
2020/12/05 10:13:11;;;;;;;12.97;7.63;;;;;;;;;;10312915;28;20206;-71
2020/12/05 10:18:13;;;;;;;15.10;8.50;;;;;;;;;;10313491;28;20664;-71
2020/12/05 10:23:15;;;;;;;17.53;7.83;;;;;;;;;;10316093;28;20220;-71
2020/12/05 10:28:17;;;;;;;13.50;7.40;;;;;;;;;;10312231;28;20249;-71
2020/12/05 10:33:19;;;;;;;15.93;8.67;;;;;;;;;;10307731;28;20946;-72
2020/12/05 10:38:21;;;;;;;14.27;7.77;;;;;;;;;;10317131;28;20583;-71
2020/12/05 10:43:23;;;;;;;15.30;7.93;;;;;;;;;;10309328;28;20310;-71
2020/12/05 10:48:26;;;;;;;13.10;7.17;;;;;;;;;;10352422;28;20239;-75
2020/12/05 10:53:29;;;;;;;13.63;6.93;;;;;;;;;;10320431;28;20209;-71
2020/12/05 10:58:30;;;;;;;14.93;7.17;;;;;;;;;;10321390;28;20225;-72
2020/12/05 11:03:33;;;;;;;11.60;7.03;;;;;;;;;;10310465;28;20209;-72
2020/12/05 11:08:35;;;;;;;13.73;7.43;;;;;;;;;;10313971;28;20237;-71
2020/12/05 11:13:37;;;;;;;10.93;6.03;;;;;;;;;;10311596;28;20707;-72
2020/12/05 11:18:40;;;;;;;14.87;6.37;;;;;;;;;;10318789;28;20602;-71
2020/12/05 11:23:43;;;;;;;11.47;6.60;;;;;;;;;;10315642;28;20634;-71
2020/12/05 12:36:35;;;;;;;7.70;4.73;;;;;;;;;;10553818;27;20224;-72
2020/12/05 12:41:37;;;;;;;8.63;4.73;;;;;;;;;;10570877;27;20210;-71
2020/12/05 12:46:51;;;;;;;13.23;4.63;;;;;;;;;;10581326;27;20210;-72
2020/12/05 12:51:54;;;;;;;9.33;5.00;;;;;;;;;;10570271;27;20229;-70
2020/12/05 12:56:56;;;;;;;6.67;4.70;;;;;;;;;;10576554;27;20634;-72
2020/12/05 13:01:59;;;;;;;8.50;4.23;;;;;;;;;;10567271;27;20217;-72
2020/12/05 13:07:01;;;;;;;6.87;4.10;;;;;;;;;;10575977;27;20214;-70
2020/12/05 13:12:03;;;;;;;8.17;4.60;;;;;;;;;;10561930;27;20252;-70
2020/12/05 13:17:05;;;;;;;9.60;4.90;;;;;;;;;;10569639;27;20209;-70
2020/12/05 13:22:08;;;;;;;7.93;4.27;;;;;;;;;;10571845;27;20224;-72
2020/12/05 13:27:09;;;;;;;8.57;3.90;;;;;;;;;;10573366;27;24653;-71
2020/12/05 13:32:11;;;;;;;10.93;3.83;;;;;;;;;;10572234;27;20228;-72
2020/12/05 13:37:14;;;;;;;8.47;3.77;;;;;;;;;;10569752;27;20236;-71
2020/12/05 13:42:17;;;;;;;9.23;4.50;;;;;;;;;;10577150;27;20210;-71
2020/12/05 13:47:37;;;;;;;7.07;4.10;;;;;;;;;;10573504;27;20213;-71
2020/12/05 13:52:40;;;;;;;11.13;4.40;;;;;;;;;;10566938;27;20237;-71
2020/12/05 13:57:42;;;;;;;10.77;5.00;;;;;;;;;;10565071;27;20209;-72
2020/12/05 14:02:44;;;;;;;6.93;3.87;;;;;;;;;;10564408;27;20216;-72
2020/12/05 14:07:46;;;;;;;5.33;3.53;;;;;;;;;;10564878;27;20217;-71
2020/12/05 14:12:48;;;;;;;7.57;3.77;;;;;;;;;;10563881;27;21487;-72
2020/12/05 14:17:50;;;;;;;11.70;3.77;;;;;;;;;;10565453;27;20209;-71
2020/12/05 14:22:53;;;;;;;8.67;4.03;;;;;;;;;;10573263;27;20214;-71
2020/12/05 14:27:54;;;;;;;9.53;3.80;;;;;;;;;;10564321;27;20259;-72
2020/12/05 14:32:56;;;;;;;10.03;3.80;;;;;;;;;;10563565;27;20241;-71
2020/12/05 14:38:00;;;;;;;10.03;3.47;;;;;;;;;;10567651;28;20248;-71
2020/12/05 14:43:02;;;;;;;7.47;3.77;;;;;;;;;;10570120;27;20224;-72
2020/12/05 14:48:04;;;;;;;9.93;3.53;;;;;;;;;;10562100;27;20218;-72
2020/12/05 14:53:06;;;;;;;10.57;4.23;;;;;;;;;;10567770;27;20205;-71
2020/12/05 14:58:08;;;;;;;11.87;5.03;;;;;;;;;;10565183;27;20216;-71
2020/12/05 15:03:10;;;;;;;12.17;4.57;;;;;;;;;;10565529;27;20214;-71
2020/12/05 15:08:13;;;;;;;7.80;4.40;;;;;;;;;;10564486;27;20213;-72
2020/12/05 15:13:32;;;;;;;10.07;4.60;;;;;;;;;;10575078;27;20226;-71
2020/12/05 15:18:35;;;;;;;11.63;4.50;;;;;;;;;;10568277;27;20612;-72
2020/12/05 15:23:38;;;;;;;7.27;4.13;;;;;;;;;;10580545;27;20213;-72
2020/12/05 15:28:40;;;;;;;11.03;5.00;;;;;;;;;;10574466;27;20232;-72
2020/12/05 15:33:42;;;;;;;8.33;4.40;;;;;;;;;;10577376;27;20244;-70
2020/12/05 15:38:45;;;;;;;9.37;4.73;;;;;;;;;;10570869;27;20768;-70
2020/12/05 15:43:47;;;;;;;12.50;4.97;;;;;;;;;;10581327;27;20590;-72
2020/12/05 15:48:49;;;;;;;8.90;4.77;;;;;;;;;;10575549;27;20229;-72
2020/12/05 15:53:52;;;;;;;10.67;4.33;;;;;;;;;;10577463;27;20210;-72
2020/12/05 15:58:54;;;;;;;10.80;5.90;;;;;;;;;;10568197;27;20210;-71
2020/12/05 16:03:56;;;;;;;8.07;5.43;;;;;;;;;;10578015;27;20343;-72
2020/12/05 16:08:58;;;;;;;8.70;4.63;;;;;;;;;;10577479;27;20229;-71
2020/12/05 16:14:00;;;;;;;9.97;5.03;;;;;;;;;;10571258;27;20278;-71
2020/12/05 16:19:11;;;;;;;10.10;5.27;;;;;;;;;;10568209;27;20209;-71
2020/12/05 16:24:14;;;;;;;12.43;5.63;;;;;;;;;;10573940;27;20243;-71
2020/12/05 16:29:16;;;;;;;12.20;6.13;;;;;;;;;;10567197;27;20722;-71
2020/12/05 16:34:18;;;;;;;13.67;6.50;;;;;;;;;;10569886;27;20239;-72
2020/12/05 16:39:22;;;;;;;16.47;6.23;;;;;;;;;;10586464;27;20668;-72
2020/12/05 16:44:24;;;;;;;11.77;6.37;;;;;;;;;;10575313;27;20224;-71
2020/12/05 16:49:25;;;;;;;12.27;6.50;;;;;;;;;;10572741;27;20251;-70
2020/12/05 16:54:28;;;;;;;12.97;6.30;;;;;;;;;;10574730;27;20234;-72
2020/12/05 16:59:30;;;;;;;13.53;6.30;;;;;;;;;;10582953;27;20209;-71
2020/12/05 17:04:32;;;;;;;13.07;6.40;;;;;;;;;;10566657;27;20213;-71
2020/12/05 17:09:35;;;;;;;12.80;6.63;;;;;;;;;;10573298;27;20243;-71
2020/12/05 17:14:37;;;;;;;12.77;6.73;;;;;;;;;;10564996;27;20209;-71
2020/12/05 17:19:38;;;;;;;12.30;6.07;;;;;;;;;;10565190;27;20212;-72
2020/12/05 17:24:41;;;;;;;14.70;6.50;;;;;;;;;;10569919;27;20713;-71
2020/12/05 17:29:46;;;;;;;13.90;7.03;;;;;;;;;;10574929;27;20243;-71
2020/12/05 17:34:49;;;;;;;12.83;6.73;;;;;;;;;;10562395;27;20284;-71
2020/12/05 17:39:52;;;;;;;11.17;5.93;;;;;;;;;;10570399;27;20221;-71
2020/12/05 17:44:54;;;;;;;13.73;6.60;;;;;;;;;;10568937;27;20213;-71
2020/12/05 17:49:56;;;;;;;13.60;6.27;;;;;;;;;;10567408;27;20239;-71
2020/12/05 17:54:58;;;;;;;11.27;6.43;;;;;;;;;;10571120;27;20213;-70
2020/12/05 18:00:02;;;;;;;14.77;6.53;;;;;;;;;;10568295;27;20992;-70
2020/12/05 18:05:04;;;;;;;13.17;6.20;;;;;;;;;;10559283;27;20217;-70
2020/12/05 18:10:11;;;;;;;18.57;8.43;;;;;;;;;;10569876;27;20309;-70
2020/12/05 18:15:13;;;;;;;27.43;12.00;;;;;;;;;;10563278;27;20208;-70
2020/12/05 18:20:15;;;;;;;31.83;11.87;;;;;;;;;;10572859;27;20304;-71
2020/12/05 18:25:18;;;;;;;25.63;10.53;;;;;;;;;;10571018;27;20231;-70
2020/12/05 18:30:20;;;;;;;19.07;9.97;;;;;;;;;;10571312;27;20241;-71
2020/12/05 18:35:21;;;;;;;17.87;9.30;;;;;;;;;;10564566;27;20230;-70
2020/12/05 18:40:24;;;;;;;17.30;9.23;;;;;;;;;;10566151;27;20677;-70
2020/12/05 18:45:26;;;;;;;22.60;9.83;;;;;;;;;;10564317;27;20216;-70
2020/12/05 18:50:28;;;;;;;26.23;11.20;;;;;;;;;;10576984;27;20244;-70
2020/12/05 18:55:30;;;;;;;19.33;10.57;;;;;;;;;;10579689;27;20224;-71
2020/12/05 19:00:32;;;;;;;20.80;10.50;;;;;;;;;;10589033;27;20209;-71
2020/12/05 19:05:34;;;;;;;19.90;10.13;;;;;;;;;;10572623;27;20209;-71
2020/12/05 19:10:37;;;;;;;18.43;10.03;;;;;;;;;;10583179;27;20251;-71
2020/12/05 19:15:39;;;;;;;21.90;10.07;;;;;;;;;;10577765;27;20785;-71
2020/12/05 19:20:40;;;;;;;19.27;10.10;;;;;;;;;;10578359;27;20718;-71
2020/12/05 19:25:43;;;;;;;21.57;10.27;;;;;;;;;;10579906;27;20241;-71
2020/12/05 19:30:45;;;;;;;23.70;11.27;;;;;;;;;;10567624;27;20233;-71
2020/12/05 19:35:47;;;;;;;19.07;9.43;;;;;;;;;;10572806;27;20247;-71
2020/12/05 19:40:49;;;;;;;19.13;9.77;;;;;;;;;;10577762;27;20209;-71
2020/12/05 19:45:51;;;;;;;17.53;9.53;;;;;;;;;;10576989;27;20221;-70
2020/12/05 19:50:53;;;;;;;20.47;9.97;;;;;;;;;;10571903;27;20729;-71
2020/12/05 19:55:56;;;;;;;21.57;11.53;;;;;;;;;;10577072;27;20201;-71
2020/12/05 20:00:57;;;;;;;24.63;12.27;;;;;;;;;;10573014;27;20208;-71
2020/12/05 20:06:01;;;;;;;28.10;13.40;;;;;;;;;;10572946;27;20208;-70
2020/12/05 20:11:04;;;;;;;23.97;12.40;;;;;;;;;;10568531;27;20735;-70
2020/12/05 20:16:07;;;;;;;22.97;12.73;;;;;;;;;;10571654;27;20276;-70
2020/12/05 20:21:11;;;;;;;27.00;13.47;;;;;;;;;;10565356;27;20206;-70
2020/12/05 20:26:13;;;;;;;27.47;13.87;;;;;;;;;;10582239;27;20228;-70
2020/12/05 20:31:15;;;;;;;27.83;12.93;;;;;;;;;;10571844;27;20233;-69
2020/12/05 20:36:17;;;;;;;27.80;13.57;;;;;;;;;;10576085;27;20229;-71
2020/12/05 20:41:20;;;;;;;28.63;14.40;;;;;;;;;;10570592;27;20584;-70
2020/12/05 20:46:22;;;;;;;27.30;13.87;;;;;;;;;;10571615;27;20213;-70
2020/12/05 20:51:24;;;;;;;26.63;13.67;;;;;;;;;;10570048;27;20240;-70
2020/12/05 20:56:27;;;;;;;23.77;13.77;;;;;;;;;;10580199;27;20336;-71
2020/12/05 21:01:28;;;;;;;30.80;13.63;;;;;;;;;;10576948;27;20668;-71
2020/12/05 21:06:30;;;;;;;26.90;13.13;;;;;;;;;;10563322;27;20201;-70
2020/12/05 21:11:33;;;;;;;28.83;14.67;;;;;;;;;;10568723;27;20278;-71
2020/12/05 21:16:35;;;;;;;24.73;12.13;;;;;;;;;;10576944;27;20220;-72
2020/12/05 21:21:37;;;;;;;22.87;11.30;;;;;;;;;;10567566;27;20572;-72
2020/12/05 21:26:40;;;;;;;23.93;12.17;;;;;;;;;;10571004;27;20232;-71
2020/12/05 21:31:42;;;;;;;21.77;11.93;;;;;;;;;;10574929;27;20237;-71
2020/12/05 21:36:44;;;;;;;24.83;12.30;;;;;;;;;;10568773;27;20228;-71
2020/12/05 21:41:49;;;;;;;24.30;11.77;;;;;;;;;;10575333;27;20718;-70
2020/12/05 21:46:52;;;;;;;26.57;12.47;;;;;;;;;;10567376;27;20216;-71
2020/12/05 21:51:54;;;;;;;21.83;12.20;;;;;;;;;;10567851;27;20901;-71
2020/12/05 21:56:56;;;;;;;19.93;11.20;;;;;;;;;;10573002;27;20215;-71
2020/12/05 22:01:58;;;;;;;21.57;10.97;;;;;;;;;;10569061;27;20216;-71
2020/12/05 22:07:00;;;;;;;19.63;10.93;;;;;;;;;;10564654;27;20781;-71
2020/12/05 22:12:03;;;;;;;20.60;10.33;;;;;;;;;;10571565;27;20236;-70
2020/12/05 22:17:04;;;;;;;21.00;10.60;;;;;;;;;;10569903;27;20213;-71
2020/12/05 22:22:07;;;;;;;20.93;11.37;;;;;;;;;;10566986;27;20212;-71
2020/12/05 22:27:10;;;;;;;22.00;10.97;;;;;;;;;;10570081;27;20233;-70
2020/12/05 22:32:12;;;;;;;22.87;10.60;;;;;;;;;;10570165;27;20235;-70
2020/12/05 22:37:13;;;;;;;21.07;10.73;;;;;;;;;;10565521;27;20237;-72
2020/12/05 22:42:16;;;;;;;20.33;10.47;;;;;;;;;;10562499;27;20229;-70
2020/12/05 22:47:18;;;;;;;21.10;10.80;;;;;;;;;;10568358;27;20220;-71
2020/12/05 22:52:20;;;;;;;23.10;11.00;;;;;;;;;;10564908;27;20728;-70
2020/12/05 22:57:23;;;;;;;24.77;10.63;;;;;;;;;;10570854;27;20209;-70
2020/12/05 23:02:24;;;;;;;25.23;11.03;;;;;;;;;;10567710;27;20807;-72
2020/12/05 23:07:27;;;;;;;19.13;9.73;;;;;;;;;;10574351;28;20212;-70
2020/12/05 23:12:30;;;;;;;26.07;10.77;;;;;;;;;;10574350;27;20236;-70
2020/12/05 23:17:32;;;;;;;20.77;11.03;;;;;;;;;;10577518;27;20217;-71
2020/12/05 23:22:33;;;;;;;22.40;11.67;;;;;;;;;;10566992;27;20223;-70
2020/12/05 23:27:36;;;;;;;24.40;11.53;;;;;;;;;;10564190;27;20236;-71
2020/12/05 23:32:41;;;;;;;22.70;11.97;;;;;;;;;;10565700;27;20237;-69
2020/12/05 23:37:42;;;;;;;26.13;12.00;;;;;;;;;;10574592;27;20704;-69
2020/12/05 23:42:50;;;;;;;27.77;12.87;;;;;;;;;;10582045;27;20212;-69
2020/12/05 23:47:52;;;;;;;22.30;12.17;;;;;;;;;;10568349;27;20210;-69
2020/12/05 23:52:55;;;;;;;24.10;12.37;;;;;;;;;;10571458;27;20229;-69
2020/12/05 23:57:57;;;;;;;23.10;12.60;;;;;;;;;;10568983;27;20202;-72
